Flight Track Log - Related Links

Times and Time Zones

All times are in EDT time to prevent confusion due to time zone crossing. See the ASH1048 flight status page for this flight to view local times or setup timezone preferences in your user account.

Time Position Orientation Groundspeed Altitude Reporting Facility
EDT Latitude Longitude Course Direction KTS MPH feet Rate Location/Type
Sun 01:01:07 PM 21.3167 -157.9000 148° Southeast 180 207 1,100  Level Honolulu Center
Sun 01:02:08 PM 21.2667 -157.8667 148° Southeast 250 288 2,900 2,231 Climbing Honolulu Center
Sun 01:03:08 PM 21.2000 -157.8167 145° Southeast 260 299 5,600 2,500 Climbing Honolulu Center
Sun 01:04:08 PM 21.2000 -157.7333 90° East 270 311 7,900 2,500 Climbing Honolulu Center
Sun 01:05:08 PM 21.2333 -157.6667 62° Northeast 260 299 10,600 1,600 Climbing Honolulu Center
Sun 01:06:08 PM 21.2167 -157.5833 102° East 320 368 11,100 850 Climbing Honolulu Center
Sun 01:07:08 PM 21.2000 -157.4833 100° East 350 403 12,300 1,150 Climbing Honolulu Center
Sun 01:08:08 PM 21.1667 -157.3667 107° East 360 414 13,400 1,100 Climbing Honolulu Center
Sun 01:09:08 PM 21.1333 -157.2833 113° Southeast 370 426 14,500 1,091 Climbing Honolulu Center
Sun 01:10:09 PM 21.0833 -157.2000 123° Southeast 370 426 15,600 1,140 Climbing Honolulu Center
Sun 01:11:09 PM 21.0500 -157.0833 107° East 380 437 16,800 950 Climbing Honolulu Center
Sun 01:12:09 PM 20.9833 -156.9833 126° Southeast 380 437 17,500 550 Climbing Honolulu Center
Sun 01:13:09 PM 20.9500 -156.8833 110° East 390 449 17,900 600 Climbing Honolulu Center
Sun 01:14:09 PM 20.9000 -156.7667 115° Southeast 390 449 18,700 550 Climbing Honolulu Center
Sun 01:15:09 PM 20.8500 -156.6667 118° Southeast 400 460 19,000 150 Climbing Honolulu Center
Sun 01:16:09 PM 20.8000 -156.5500 115° Southeast 400 460 19,000  Level Honolulu Center
Sun 01:17:10 PM 20.7500 -156.4500 118° Southeast 390 449 19,000  Level Honolulu Center
Sun 01:18:10 PM 20.7000 -156.3500 118° Southeast 380 437 19,000  Level Honolulu Center
Sun 01:19:10 PM 20.6500 -156.2500 118° Southeast 380 437 19,000  Level Honolulu Center
Sun 01:20:10 PM 20.6000 -156.1500 118° Southeast 380 437 19,000  Level Honolulu Center
Sun 01:21:10 PM 20.5500 -156.0500 118° Southeast 380 437 19,000  Level Honolulu Center
Sun 01:22:10 PM 20.5167 -155.9667 113° Southeast 390 449 19,000  Level Honolulu Center
Sun 01:23:10 PM 20.4667 -155.8667 118° Southeast 390 449 19,000  Level Honolulu Center
Sun 01:24:10 PM 20.4167 -155.7500 115° Southeast 380 437 19,000 -150 Level Honolulu Center
Sun 01:25:10 PM 20.3667 -155.6500 118° Southeast 380 437 18,700 -1,150 Descending Honolulu Center
Sun 01:26:10 PM 20.3167 -155.5333 115° Southeast 400 460 16,700 -2,033 Descending Honolulu Center
Sun 01:27:11 PM 20.2667 -155.4333 118° Southeast 390 449 14,600 -2,083 Descending Honolulu Center
Sun 01:28:11 PM 20.2167 -155.3333 118° Southeast 370 426 12,500 -2,150 Descending Honolulu Center
Sun 01:29:11 PM 20.1667 -155.2500 123° Southeast 350 403 10,300 -1,650 Descending Honolulu Center
Sun 01:30:11 PM 20.1167 -155.1833 129° Southeast 280 322 9,200 -1,600 Descending Honolulu Center
Sun 01:31:11 PM 20.0667 -155.1167 129° Southeast 280 322 7,100 -1,900 Descending Honolulu Center
Sun 01:32:11 PM 20.0167 -155.0500 129° Southeast 260 299 5,400 -1,785 Descending Honolulu Center
Sun 01:33:12 PM 19.9667 -155.0000 137° Southeast 250 288 3,500 -1,785 Descending Honolulu Center
Sun 01:34:12 PM 19.9167 -154.9500 137° Southeast 240 276 1,800 -1,700 Descending Honolulu Center

Login

Don't have an account? Register now (free) for customized features, flight alerts, and more!